Time;durP1;ratioP1;P1;durP2;ratioP2;P2;SDS_P1;SDS_P2;PMS_P1;PMS_P2;Temp;Humidity;BMP_temperature;BMP_pressure;BME280_temperature;BME280_humidity;BME280_pressure;Samples;Min_cycle;Max_cycle;Signal;HPM_P1;HPM_P2
2020/12/10 00:00:19;;;;;;;44.75;29.73;;;2.40;95.50;;;;;;5109911;28;20415;-76
2020/12/10 00:02:45;;;;;;;45.45;29.20;;;2.30;95.70;;;;;;5090557;28;20503;-76
2020/12/10 00:05:12;;;;;;;49.38;31.08;;;2.30;95.80;;;;;;5095985;28;20491;-76
2020/12/10 00:07:39;;;;;;;46.75;30.02;;;2.30;95.90;;;;;;5110574;28;20480;-76
2020/12/10 00:10:09;;;;;;;47.72;29.50;;;2.30;96.00;;;;;;5096269;28;20457;-76
2020/12/10 00:12:43;;;;;;;45.10;28.77;;;2.20;96.10;;;;;;5110168;28;20428;-76
2020/12/10 00:15:13;;;;;;;49.03;30.80;;;2.30;96.10;;;;;;5113387;28;20801;-76
2020/12/10 00:17:42;;;;;;;49.55;30.50;;;2.30;96.20;;;;;;5092428;28;20909;-77
2020/12/10 00:20:09;;;;;;;49.47;31.05;;;2.30;96.00;;;;;;5113543;28;20411;-77
2020/12/10 00:22:36;;;;;;;48.15;29.65;;;2.30;96.10;;;;;;5112335;28;20738;-76
2020/12/10 00:25:08;;;;;;;48.22;30.25;;;2.40;96.00;;;;;;5111638;28;20428;-75
2020/12/10 00:27:35;;;;;;;45.80;29.75;;;2.30;96.20;;;;;;5095269;28;20408;-76
2020/12/10 00:30:05;;;;;;;45.33;29.35;;;2.30;96.30;;;;;;5092526;28;20484;-76
2020/12/10 00:32:32;;;;;;;44.20;27.85;;;2.30;96.40;;;;;;5095254;28;20838;-76
2020/12/10 00:34:59;;;;;;;45.00;28.40;;;2.40;96.30;;;;;;5109767;28;20408;-76
2020/12/10 00:37:26;;;;;;;43.05;27.98;;;2.40;96.20;;;;;;5095524;28;20486;-76
2020/12/10 00:39:53;;;;;;;43.63;28.13;;;2.30;96.20;;;;;;5109672;28;20457;-76
2020/12/10 00:42:19;;;;;;;42.13;27.80;;;2.40;96.40;;;;;;5095343;28;20462;-76
2020/12/10 00:44:48;;;;;;;42.03;26.60;;;2.40;96.30;;;;;;5092457;28;20500;-76
2020/12/10 00:47:19;;;;;;;43.35;27.00;;;2.40;96.30;;;;;;5113233;28;20910;-76
2020/12/10 00:49:48;;;;;;;36.83;25.60;;;2.40;96.30;;;;;;5092202;28;20410;-76
2020/12/10 00:52:15;;;;;;;35.38;24.10;;;2.40;96.40;;;;;;5095441;28;20432;-76
2020/12/10 00:54:42;;;;;;;35.45;24.02;;;2.40;96.30;;;;;;5109450;28;20841;-76
2020/12/10 00:57:09;;;;;;;35.50;23.38;;;2.40;96.20;;;;;;5113059;28;20852;-76
2020/12/10 00:59:40;;;;;;;33.00;22.70;;;2.40;96.20;;;;;;5112435;28;20461;-76
2020/12/10 01:02:09;;;;;;;31.17;21.98;;;2.40;96.10;;;;;;5091116;28;20446;-76
2020/12/10 01:04:36;;;;;;;28.05;20.30;;;2.40;96.00;;;;;;5112537;28;20461;-76
2020/12/10 01:07:03;;;;;;;27.27;19.98;;;2.50;95.80;;;;;;5091566;28;20469;-76
2020/12/10 01:09:32;;;;;;;25.15;18.95;;;2.50;96.00;;;;;;5094909;28;20441;-76
2020/12/10 01:11:58;;;;;;;27.20;20.37;;;2.50;95.50;;;;;;5095549;28;20461;-76
2020/12/10 01:14:24;;;;;;;26.27;19.35;;;2.50;95.50;;;;;;5074483;28;20433;-76
2020/12/10 01:16:51;;;;;;;25.10;18.98;;;2.50;95.50;;;;;;5099371;28;20404;-76
2020/12/10 01:19:17;;;;;;;24.45;18.80;;;2.50;95.50;;;;;;5094992;28;20423;-76
2020/12/10 01:21:44;;;;;;;26.30;19.27;;;2.50;95.30;;;;;;5091270;28;20409;-76
2020/12/10 01:24:11;;;;;;;25.27;18.80;;;2.50;95.30;;;;;;5112097;28;20400;-76
2020/12/10 01:26:38;;;;;;;26.60;19.63;;;2.50;95.30;;;;;;5108837;28;20884;-76
2020/12/10 01:29:05;;;;;;;26.15;18.80;;;2.40;95.30;;;;;;5094351;28;21024;-76
2020/12/10 01:31:34;;;;;;;25.67;18.05;;;2.50;95.30;;;;;;5092454;28;21065;-76
2020/12/10 01:34:01;;;;;;;25.43;18.57;;;2.50;95.20;;;;;;5077699;28;20869;-76
2020/12/10 01:36:30;;;;;;;26.33;19.50;;;2.50;94.90;;;;;;5094517;28;20405;-76
2020/12/10 01:38:59;;;;;;;45.97;28.73;;;2.50;95.00;;;;;;5090512;28;20420;-76
2020/12/10 01:41:31;;;;;;;28.55;19.13;;;2.40;95.20;;;;;;5111846;28;20881;-76
2020/12/10 01:44:10;;;;;;;24.58;18.80;;;2.40;95.10;;;;;;5091482;28;20416;-76
2020/12/10 01:46:40;;;;;;;27.85;19.73;;;2.30;95.00;;;;;;5111803;28;20519;-76
2020/12/10 01:49:08;;;;;;;26.13;19.08;;;2.30;95.10;;;;;;5090756;28;20400;-76
2020/12/10 01:51:35;;;;;;;29.60;19.38;;;2.30;94.90;;;;;;5094104;28;20447;-76
2020/12/10 01:54:03;;;;;;;27.60;19.70;;;2.20;95.10;;;;;;5108189;28;20432;-76
2020/12/10 01:56:33;;;;;;;24.77;18.52;;;2.20;95.20;;;;;;5111672;28;20492;-76
2020/12/10 01:59:00;;;;;;;24.83;18.67;;;2.20;95.20;;;;;;5089958;28;20841;-76
2020/12/10 02:01:28;;;;;;;27.58;19.52;;;2.20;95.30;;;;;;5111632;28;20476;-76
2020/12/10 02:03:56;;;;;;;28.08;20.00;;;2.20;95.20;;;;;;5090405;28;20408;-75
2020/12/10 02:06:22;;;;;;;27.70;19.70;;;2.20;95.30;;;;;;5111648;28;20500;-76
2020/12/10 02:08:49;;;;;;;26.92;19.17;;;2.10;95.30;;;;;;5108245;28;20431;-76
2020/12/10 02:11:16;;;;;;;27.17;19.05;;;2.10;95.40;;;;;;5111590;28;20420;-76
2020/12/10 02:13:45;;;;;;;27.83;19.83;;;2.10;95.30;;;;;;5111726;28;20481;-76
2020/12/10 02:16:13;;;;;;;28.67;20.33;;;2.00;95.30;;;;;;5090109;28;20436;-76
2020/12/10 02:18:40;;;;;;;27.33;19.30;;;2.00;95.40;;;;;;5093502;28;20403;-76
2020/12/10 02:21:06;;;;;;;26.70;19.10;;;2.00;95.40;;;;;;5107002;28;20461;-76
2020/12/10 02:23:33;;;;;;;28.33;19.90;;;1.90;95.30;;;;;;5093368;28;20465;-76
2020/12/10 02:26:02;;;;;;;27.88;20.40;;;1.90;95.20;;;;;;5107262;28;20439;-76
2020/12/10 02:28:28;;;;;;;25.63;19.08;;;1.90;95.40;;;;;;5111634;28;20435;-75
2020/12/10 02:30:54;;;;;;;28.23;19.73;;;1.80;95.40;;;;;;5089574;28;20508;-76
2020/12/10 02:33:21;;;;;;;28.20;19.98;;;1.80;95.40;;;;;;5093186;28;20503;-76
2020/12/10 02:35:47;;;;;;;29.60;21.25;;;1.80;95.40;;;;;;5107299;28;20453;-76
2020/12/10 02:38:14;;;;;;;31.23;20.73;;;1.70;95.50;;;;;;5092923;28;20405;-76
2020/12/10 02:40:46;;;;;;;28.63;20.50;;;1.70;95.70;;;;;;5107549;28;20404;-76
2020/12/10 02:43:16;;;;;;;29.63;21.35;;;1.60;95.70;;;;;;5093338;28;20393;-76
2020/12/10 02:45:43;;;;;;;29.60;20.80;;;1.70;95.70;;;;;;5091211;28;20397;-76
2020/12/10 02:48:10;;;;;;;28.60;20.30;;;1.60;95.60;;;;;;5092102;28;20420;-76
2020/12/10 02:50:38;;;;;;;29.20;20.52;;;1.60;95.60;;;;;;5093056;28;20466;-76
2020/12/10 02:53:08;;;;;;;29.35;21.10;;;1.60;95.70;;;;;;5107584;28;20469;-76
2020/12/10 02:55:36;;;;;;;31.43;22.03;;;1.60;95.70;;;;;;5092908;28;21086;-76
2020/12/10 02:58:03;;;;;;;28.65;20.70;;;1.60;95.80;;;;;;5107537;28;20404;-76
2020/12/10 03:00:30;;;;;;;30.10;21.13;;;1.60;95.80;;;;;;5110950;28;20469;-76
2020/12/10 03:02:59;;;;;;;31.50;21.52;;;1.60;95.80;;;;;;5099236;28;20962;-75
2020/12/10 03:05:25;;;;;;;30.60;21.92;;;1.60;95.70;;;;;;5110755;28;20508;-76
2020/12/10 03:07:52;;;;;;;31.75;22.27;;;1.60;95.90;;;;;;5106767;28;20996;-77
2020/12/10 03:10:20;;;;;;;31.65;22.00;;;1.60;95.70;;;;;;5110815;28;20424;-76
2020/12/10 03:12:47;;;;;;;35.87;24.77;;;1.60;95.70;;;;;;5089728;28;20521;-76
2020/12/10 03:15:13;;;;;;;33.00;23.73;;;1.50;95.60;;;;;;5093077;28;20427;-76
2020/12/10 03:17:40;;;;;;;30.98;22.45;;;1.50;95.80;;;;;;5107121;28;20465;-77
2020/12/10 03:20:07;;;;;;;31.63;22.35;;;1.50;95.90;;;;;;5107244;28;20411;-75
2020/12/10 03:22:33;;;;;;;33.03;22.70;;;1.50;95.90;;;;;;5106408;28;20720;-75
2020/12/10 03:25:00;;;;;;;32.85;22.85;;;1.50;95.80;;;;;;5084821;28;20490;-76
2020/12/10 03:27:26;;;;;;;30.15;22.38;;;1.50;95.90;;;;;;5089748;28;20422;-76
2020/12/10 03:29:55;;;;;;;31.67;22.40;;;1.40;95.90;;;;;;5064030;28;20406;-76
2020/12/10 03:32:22;;;;;;;31.10;22.00;;;1.40;96.00;;;;;;5072537;28;20458;-76
2020/12/10 03:34:51;;;;;;;29.67;21.08;;;1.40;96.00;;;;;;5080649;28;20590;-76
2020/12/10 03:37:18;;;;;;;27.75;20.67;;;1.40;95.90;;;;;;5093671;28;20496;-77
2020/12/10 03:39:45;;;;;;;30.88;22.00;;;1.60;95.70;;;;;;5093506;28;20408;-76
2020/12/10 03:42:11;;;;;;;29.38;21.85;;;1.50;95.70;;;;;;5114830;28;20432;-76
2020/12/10 03:44:40;;;;;;;30.77;22.83;;;1.40;95.80;;;;;;5092874;28;20463;-76
2020/12/10 03:47:06;;;;;;;32.22;22.05;;;1.40;95.90;;;;;;5096727;28;20404;-76
2020/12/10 03:49:33;;;;;;;30.35;22.20;;;1.40;95.80;;;;;;5111240;28;20431;-76
2020/12/10 03:51:59;;;;;;;34.25;22.95;;;1.40;95.90;;;;;;5096041;28;20415;-76
2020/12/10 03:54:25;;;;;;;32.38;23.35;;;1.40;95.80;;;;;;5096127;28;20455;-76
2020/12/10 03:56:52;;;;;;;31.50;22.77;;;1.30;96.00;;;;;;5092543;28;20403;-76
2020/12/10 03:59:19;;;;;;;32.72;22.05;;;1.40;96.20;;;;;;5113773;28;20428;-76
2020/12/10 04:01:46;;;;;;;30.45;21.95;;;1.30;96.00;;;;;;5093089;28;20410;-76
2020/12/10 04:04:12;;;;;;;33.60;22.90;;;1.40;96.00;;;;;;5113873;28;20478;-76
2020/12/10 04:06:43;;;;;;;33.43;23.77;;;1.40;95.90;;;;;;5110380;28;20800;-76
2020/12/10 04:09:13;;;;;;;35.17;24.85;;;1.40;96.00;;;;;;5096465;28;20419;-76
2020/12/10 04:11:42;;;;;;;32.80;23.88;;;1.40;96.00;;;;;;5092588;28;20424;-76
2020/12/10 04:14:09;;;;;;;30.90;22.00;;;1.30;96.10;;;;;;5113602;28;20501;-77
2020/12/10 04:16:36;;;;;;;35.00;23.23;;;1.30;96.10;;;;;;5110393;28;20461;-76
2020/12/10 04:19:03;;;;;;;32.05;22.45;;;1.30;96.20;;;;;;5113523;28;20410;-76
2020/12/10 04:21:33;;;;;;;33.03;23.40;;;1.30;96.20;;;;;;5091899;28;20963;-76
2020/12/10 04:24:00;;;;;;;31.20;23.05;;;1.30;96.30;;;;;;5095296;28;20854;-76
2020/12/10 04:26:28;;;;;;;31.67;22.55;;;1.30;96.40;;;;;;5111480;28;20935;-77
2020/12/10 04:28:55;;;;;;;31.00;21.73;;;1.30;96.40;;;;;;5112721;28;20408;-76
2020/12/10 04:31:21;;;;;;;29.45;21.77;;;1.30;96.30;;;;;;5095436;28;20431;-76
2020/12/10 04:33:48;;;;;;;26.47;19.90;;;1.30;96.30;;;;;;5091992;28;20408;-76
2020/12/10 04:36:17;;;;;;;27.92;21.33;;;1.40;96.20;;;;;;5095812;28;20424;-76
2020/12/10 04:38:43;;;;;;;29.98;21.55;;;1.40;96.10;;;;;;5091747;28;20493;-76
2020/12/10 04:41:10;;;;;;;31.60;22.63;;;1.40;96.20;;;;;;5113189;28;20416;-76
2020/12/10 04:43:36;;;;;;;31.52;22.90;;;1.40;96.10;;;;;;5092210;28;20454;-76
2020/12/10 04:46:04;;;;;;;31.05;22.58;;;1.40;96.20;;;;;;5113032;28;20802;-75
2020/12/10 04:48:33;;;;;;;30.63;22.42;;;1.40;96.30;;;;;;5109649;28;20405;-76
2020/12/10 04:51:03;;;;;;;30.05;21.90;;;1.30;96.20;;;;;;5112897;28;20497;-76
2020/12/10 04:53:32;;;;;;;29.60;21.60;;;1.30;96.40;;;;;;5109381;28;20499;-75
2020/12/10 04:56:05;;;;;;;27.43;20.50;;;1.30;96.40;;;;;;5113621;28;20400;-76
2020/12/10 04:58:31;;;;;;;30.13;21.80;;;1.40;96.30;;;;;;5091545;28;20436;-76
2020/12/10 05:01:00;;;;;;;31.75;22.20;;;1.40;96.30;;;;;;5095000;28;20416;-76
2020/12/10 05:03:30;;;;;;;30.15;22.60;;;1.40;96.20;;;;;;5112585;28;20787;-75
2020/12/10 05:06:10;;;;;;;33.00;23.73;;;1.40;96.30;;;;;;5110744;28;20402;-76
2020/12/10 05:08:37;;;;;;;32.85;23.98;;;1.40;96.40;;;;;;5094626;28;20396;-76
2020/12/10 05:11:06;;;;;;;32.00;23.38;;;1.40;96.40;;;;;;5089847;28;20515;-75
2020/12/10 05:13:38;;;;;;;32.97;22.67;;;1.40;96.70;;;;;;5092333;28;20491;-75
2020/12/10 05:16:19;;;;;;;30.13;21.80;;;1.40;96.50;;;;;;5087886;28;20393;-75
2020/12/10 05:18:46;;;;;;;31.85;23.00;;;1.40;96.40;;;;;;5094715;28;20432;-75
2020/12/10 05:21:16;;;;;;;35.47;24.33;;;1.40;96.40;;;;;;5108855;28;20796;-75
2020/12/10 05:23:44;;;;;;;32.78;24.20;;;1.40;96.40;;;;;;5109176;28;20470;-75
2020/12/10 05:26:13;;;;;;;33.00;23.30;;;1.30;96.40;;;;;;5082486;28;20848;-75
2020/12/10 05:28:44;;;;;;;34.33;24.15;;;1.30;96.40;;;;;;5094681;28;20457;-76
2020/12/10 05:31:15;;;;;;;34.70;24.07;;;1.40;96.50;;;;;;5108159;28;20596;-75
2020/12/10 05:33:58;;;;;;;32.78;23.92;;;1.40;96.50;;;;;;5094680;28;20531;-76
2020/12/10 05:36:28;;;;;;;35.35;25.13;;;1.40;96.50;;;;;;5090199;28;20431;-75
2020/12/10 05:39:08;;;;;;;32.65;24.27;;;1.40;96.40;;;;;;5111710;28;20411;-75
2020/12/10 05:41:39;;;;;;;35.03;25.07;;;1.40;96.40;;;;;;5108431;28;20457;-75
2020/12/10 05:44:17;;;;;;;36.03;24.70;;;1.40;96.40;;;;;;5093825;27;20397;-75
2020/12/10 05:46:44;;;;;;;33.65;24.05;;;1.40;96.40;;;;;;5090667;28;20497;-75
2020/12/10 05:49:17;;;;;;;31.73;23.83;;;1.40;96.30;;;;;;5111771;28;20457;-75
2020/12/10 05:51:45;;;;;;;31.15;23.00;;;1.50;96.20;;;;;;5090435;28;20752;-75
2020/12/10 05:54:16;;;;;;;35.00;25.05;;;1.50;96.20;;;;;;5094326;28;20392;-75
2020/12/10 05:56:58;;;;;;;41.45;28.00;;;1.50;96.20;;;;;;5090348;28;20828;-76
2020/12/10 05:59:27;;;;;;;40.53;27.57;;;1.50;96.10;;;;;;5111044;28;20428;-76
2020/12/10 06:02:01;;;;;;;37.85;26.10;;;1.50;96.10;;;;;;5107449;28;20749;-75
2020/12/10 06:04:28;;;;;;;42.67;27.70;;;1.40;96.00;;;;;;5073641;27;20849;-75
2020/12/10 06:06:59;;;;;;;40.58;27.33;;;1.50;96.10;;;;;;5091092;28;20488;-76
2020/12/10 06:09:26;;;;;;;36.88;25.38;;;1.50;96.10;;;;;;5088745;28;20495;-76
2020/12/10 06:12:07;;;;;;;36.17;25.95;;;1.40;96.10;;;;;;5091203;28;20422;-76
2020/12/10 06:15:01;;;;;;;33.47;23.70;;;1.50;96.20;;;;;;5087905;28;20404;-76
2020/12/10 06:17:28;;;;;;;36.27;25.10;;;1.40;96.10;;;;;;5093004;28;20416;-76
2020/12/10 06:19:57;;;;;;;35.35;25.73;;;1.50;96.10;;;;;;5106794;27;20519;-75
2020/12/10 06:22:33;;;;;;;37.80;26.15;;;1.40;96.10;;;;;;5111599;28;20420;-75
2020/12/10 06:25:01;;;;;;;38.85;25.80;;;1.40;96.10;;;;;;5105729;27;20473;-75
2020/12/10 06:27:28;;;;;;;34.80;25.58;;;1.40;96.10;;;;;;5072870;28;20483;-75
2020/12/10 06:30:11;;;;;;;36.60;25.75;;;1.50;96.00;;;;;;5100531;28;20475;-76
2020/12/10 06:32:51;;;;;;;35.85;25.17;;;1.50;96.00;;;;;;5093354;28;20448;-75
2020/12/10 06:35:33;;;;;;;40.83;28.42;;;1.40;96.00;;;;;;5107427;28;20428;-75
2020/12/10 06:38:04;;;;;;;40.42;27.77;;;1.40;96.10;;;;;;5093366;28;20396;-75
2020/12/10 06:40:59;;;;;;;41.03;27.58;;;1.40;96.20;;;;;;5089685;28;20838;-75
2020/12/10 06:43:38;;;;;;;40.97;27.63;;;1.40;96.20;;;;;;5110974;28;20493;-75
2020/12/10 06:46:05;;;;;;;41.10;28.40;;;1.40;96.20;;;;;;5107120;28;20412;-76
2020/12/10 06:48:46;;;;;;;37.97;27.00;;;1.40;96.30;;;;;;5110829;28;20437;-75
2020/12/10 06:51:13;;;;;;;44.97;28.92;;;1.30;96.30;;;;;;5089485;28;20404;-75
2020/12/10 06:53:40;;;;;;;44.90;28.95;;;1.40;96.30;;;;;;5110597;28;20404;-75
2020/12/10 06:56:13;;;;;;;42.63;28.08;;;1.40;96.20;;;;;;5106802;28;20453;-75
2020/12/10 06:58:41;;;;;;;40.35;27.10;;;1.30;96.20;;;;;;5092862;28;20400;-76
2020/12/10 07:01:28;;;;;;;38.80;26.92;;;1.40;96.30;;;;;;5105924;28;20892;-75
2020/12/10 07:04:14;;;;;;;39.05;27.08;;;1.40;96.30;;;;;;5110524;28;20468;-76
2020/12/10 07:06:41;;;;;;;50.85;28.08;;;1.30;96.20;;;;;;5089200;28;20432;-75
2020/12/10 07:09:10;;;;;;;63.33;28.55;;;1.40;96.20;;;;;;5109643;28;20412;-75
2020/12/10 07:11:41;;;;;;;46.53;27.00;;;1.40;96.10;;;;;;5106747;28;20945;-75
2020/12/10 07:14:40;;;;;;;44.30;27.00;;;1.40;96.20;;;;;;5092800;28;20877;-75
2020/12/10 07:17:10;;;;;;;38.75;26.08;;;1.40;96.20;;;;;;5034461;28;20432;-76
2020/12/10 07:19:36;;;;;;;37.80;26.05;;;1.40;96.20;;;;;;5093012;28;20396;-75
2020/12/10 07:22:05;;;;;;;45.13;26.33;;;1.40;96.30;;;;;;5106958;28;20455;-75
2020/12/10 07:24:32;;;;;;;41.13;27.67;;;1.40;96.10;;;;;;5082517;28;20405;-75
2020/12/10 07:27:00;;;;;;;39.75;26.67;;;1.40;96.30;;;;;;5071913;28;20423;-75
2020/12/10 07:29:26;;;;;;;38.80;25.73;;;1.40;96.40;;;;;;5092589;28;20500;-75
2020/12/10 07:31:53;;;;;;;40.05;26.85;;;1.40;96.30;;;;;;5110664;28;20481;-75
2020/12/10 07:34:22;;;;;;;43.85;28.05;;;1.40;96.30;;;;;;5089610;28;20868;-75
2020/12/10 07:36:55;;;;;;;43.10;28.52;;;1.40;96.30;;;;;;5092647;28;20473;-75
2020/12/10 07:39:32;;;;;;;40.88;28.38;;;1.40;96.40;;;;;;5106477;28;20467;-75
2020/12/10 07:41:58;;;;;;;40.38;27.45;;;1.40;96.40;;;;;;5092457;28;20927;-75
2020/12/10 07:44:30;;;;;;;42.53;28.10;;;1.40;96.50;;;;;;5091380;28;20470;-75
2020/12/10 07:46:57;;;;;;;40.05;27.08;;;1.40;96.50;;;;;;5089842;28;20466;-75
2020/12/10 07:49:31;;;;;;;40.85;27.77;;;1.40;96.40;;;;;;5097736;28;20422;-75
2020/12/10 07:52:02;;;;;;;41.72;27.58;;;1.40;96.40;;;;;;5110022;28;20882;-75
2020/12/10 07:54:44;;;;;;;42.23;28.27;;;1.40;96.40;;;;;;5106222;28;20858;-75
2020/12/10 07:57:23;;;;;;;41.45;27.48;;;1.40;96.40;;;;;;5110207;28;20551;-75
2020/12/10 07:59:57;;;;;;;41.00;26.40;;;1.40;96.50;;;;;;5088760;28;20400;-75
2020/12/10 08:02:50;;;;;;;41.10;28.10;;;1.40;96.40;;;;;;5101463;28;20477;-75
2020/12/10 08:05:19;;;;;;;40.67;26.98;;;1.40;96.40;;;;;;5106307;28;20401;-75
2020/12/10 08:07:52;;;;;;;41.28;29.17;;;1.40;96.50;;;;;;5075332;28;21017;-75
2020/12/10 08:10:34;;;;;;;44.22;28.88;;;1.40;96.30;;;;;;5096097;28;20448;-75
2020/12/10 08:13:14;;;;;;;44.83;28.90;;;1.50;96.30;;;;;;5089194;28;20508;-76
2020/12/10 08:15:45;;;;;;;43.72;27.60;;;1.50;96.30;;;;;;5088160;28;20419;-75
2020/12/10 08:18:20;;;;;;;43.87;27.50;;;1.50;96.20;;;;;;5108679;28;20458;-75
2020/12/10 08:20:49;;;;;;;41.65;27.98;;;1.60;96.00;;;;;;5098295;28;20434;-74
2020/12/10 08:23:17;;;;;;;47.20;28.53;;;1.60;96.10;;;;;;5110883;28;20461;-74
2020/12/10 08:25:45;;;;;;;44.15;28.83;;;1.60;96.00;;;;;;5105648;28;20814;-74
2020/12/10 08:28:14;;;;;;;45.08;27.58;;;1.60;96.00;;;;;;5113135;28;20396;-74
2020/12/10 08:30:51;;;;;;;44.92;27.83;;;1.70;95.90;;;;;;5092181;28;20408;-74
2020/12/10 08:33:18;;;;;;;48.80;27.95;;;1.70;95.90;;;;;;5094793;28;20498;-75
2020/12/10 08:35:46;;;;;;;41.13;26.70;;;1.60;96.00;;;;;;5109174;28;20404;-74
2020/12/10 08:38:13;;;;;;;41.85;25.50;;;1.70;96.30;;;;;;5095158;28;20812;-74
2020/12/10 08:40:39;;;;;;;38.25;25.85;;;1.80;96.00;;;;;;5095146;28;20449;-74
2020/12/10 08:43:14;;;;;;;42.30;26.67;;;1.80;95.80;;;;;;5091743;28;20437;-75
2020/12/10 08:45:44;;;;;;;41.85;27.52;;;1.90;95.60;;;;;;5095453;28;20469;-74
2020/12/10 08:48:26;;;;;;;40.30;26.95;;;1.90;95.40;;;;;;5091950;28;20416;-74
2020/12/10 08:50:57;;;;;;;48.70;27.03;;;1.80;95.50;;;;;;5097729;27;20754;-74
2020/12/10 08:53:25;;;;;;;39.90;25.48;;;1.90;95.70;;;;;;5076860;28;20468;-74
2020/12/10 08:55:54;;;;;;;36.58;25.38;;;2.00;95.00;;;;;;5075092;28;20474;-75
2020/12/10 08:58:24;;;;;;;39.10;25.15;;;2.00;95.30;;;;;;5085581;28;20440;-74
2020/12/10 09:00:54;;;;;;;48.67;25.75;;;2.00;95.40;;;;;;5095393;28;20938;-74
2020/12/10 09:03:22;;;;;;;39.17;24.83;;;2.00;95.50;;;;;;5099611;28;20411;-74
2020/12/10 09:05:50;;;;;;;38.25;24.70;;;2.00;95.40;;;;;;5113065;28;20502;-74
2020/12/10 09:08:17;;;;;;;43.85;25.45;;;2.00;95.30;;;;;;5091466;28;20853;-74
2020/12/10 09:10:43;;;;;;;41.20;24.75;;;2.10;95.30;;;;;;5094839;28;20416;-74
2020/12/10 09:13:10;;;;;;;48.13;24.23;;;2.10;95.40;;;;;;5109351;28;20432;-74
2020/12/10 09:15:42;;;;;;;56.65;24.70;;;2.10;95.30;;;;;;5095688;28;20523;-74
2020/12/10 09:18:09;;;;;;;58.53;21.98;;;2.20;95.10;;;;;;5109242;28;20451;-74
2020/12/10 09:20:38;;;;;;;56.42;22.50;;;2.40;94.90;;;;;;5112536;28;20889;-75
2020/12/10 09:23:04;;;;;;;42.22;24.33;;;2.40;94.40;;;;;;5094418;28;20396;-74
2020/12/10 09:25:31;;;;;;;46.90;24.90;;;2.30;94.70;;;;;;5080081;28;20513;-74
2020/12/10 09:27:59;;;;;;;49.97;23.70;;;2.20;95.00;;;;;;5094538;28;20420;-74
2020/12/10 09:30:27;;;;;;;53.30;24.70;;;2.20;95.30;;;;;;5091021;28;20510;-74
2020/12/10 09:32:54;;;;;;;40.30;23.35;;;2.10;95.20;;;;;;5094493;28;20866;-74
2020/12/10 09:35:22;;;;;;;34.77;22.63;;;2.20;95.20;;;;;;5099095;28;20786;-75
2020/12/10 09:37:49;;;;;;;30.70;21.73;;;2.20;95.40;;;;;;5110493;28;20408;-74
2020/12/10 09:40:15;;;;;;;32.30;21.92;;;2.20;95.40;;;;;;5108331;28;21016;-75
2020/12/10 09:42:47;;;;;;;33.13;22.87;;;2.20;95.20;;;;;;5112041;28;20431;-74
2020/12/10 09:45:15;;;;;;;32.60;22.92;;;2.20;95.50;;;;;;5090617;28;20432;-74
2020/12/10 09:47:42;;;;;;;32.10;22.17;;;2.30;95.00;;;;;;5112101;28;20779;-74
2020/12/10 09:50:18;;;;;;;27.85;20.95;;;2.30;95.20;;;;;;5090595;28;20702;-75
2020/12/10 09:52:54;;;;;;;32.45;21.10;;;2.30;95.20;;;;;;5094122;28;20424;-74
2020/12/10 09:57:53;;;;;;;31.00;20.50;;;2.40;95.00;;;;;;5091334;28;20451;-74
2020/12/10 10:00:20;;;;;;;28.30;20.95;;;2.40;95.10;;;;;;5103480;28;20477;-74
2020/12/10 10:02:47;;;;;;;26.00;19.55;;;2.40;95.10;;;;;;5073315;28;20797;-74
2020/12/10 10:05:13;;;;;;;27.45;20.40;;;2.50;94.80;;;;;;5091306;28;20486;-74
2020/12/10 10:07:42;;;;;;;28.35;20.67;;;2.50;94.80;;;;;;5088517;28;20398;-74
2020/12/10 10:10:08;;;;;;;29.33;20.92;;;2.50;94.80;;;;;;5091269;28;20494;-74
2020/12/10 10:12:34;;;;;;;28.17;20.20;;;2.50;95.00;;;;;;5102001;28;20526;-74
2020/12/10 10:15:01;;;;;;;25.83;19.13;;;2.50;95.00;;;;;;5093508;28;20417;-75
2020/12/10 10:17:27;;;;;;;23.67;18.85;;;2.50;95.00;;;;;;5108028;28;20423;-74
2020/12/10 10:19:54;;;;;;;30.42;17.17;;;2.50;94.90;;;;;;5093316;28;20400;-74
2020/12/10 10:22:20;;;;;;;20.52;16.42;;;2.60;94.50;;;;;;5101453;28;20464;-74
2020/12/10 10:24:46;;;;;;;21.55;16.65;;;2.50;94.30;;;;;;5072581;28;20463;-74
2020/12/10 10:27:13;;;;;;;20.77;16.63;;;2.50;94.50;;;;;;5091637;28;20439;-74
2020/12/10 10:29:39;;;;;;;21.13;16.45;;;2.50;94.30;;;;;;5110956;28;20408;-74
2020/12/10 10:32:06;;;;;;;20.35;16.13;;;2.50;94.50;;;;;;5108384;28;20568;-74
2020/12/10 10:34:33;;;;;;;19.90;15.90;;;2.50;94.40;;;;;;5089769;28;20409;-75
2020/12/10 10:37:01;;;;;;;20.08;16.05;;;2.60;94.50;;;;;;5089848;28;20425;-75
2020/12/10 10:39:30;;;;;;;20.48;14.98;;;2.60;94.30;;;;;;5072598;28;20434;-74
2020/12/10 10:42:01;;;;;;;20.55;15.65;;;2.70;94.20;;;;;;5072996;28;20402;-75
2020/12/10 10:44:27;;;;;;;22.17;15.85;;;2.60;94.20;;;;;;5102481;28;20400;-75
2020/12/10 10:46:54;;;;;;;18.20;14.57;;;2.60;94.30;;;;;;5092625;28;20448;-74
2020/12/10 10:49:20;;;;;;;19.15;14.73;;;2.60;94.40;;;;;;5104458;28;20729;-75
2020/12/10 10:51:48;;;;;;;19.20;14.50;;;2.60;94.50;;;;;;5092046;28;20492;-74
2020/12/10 10:54:14;;;;;;;18.10;14.73;;;2.70;94.30;;;;;;5106749;28;20403;-74
2020/12/10 10:56:40;;;;;;;18.55;13.77;;;2.70;94.40;;;;;;5110853;28;20513;-75
2020/12/10 10:59:08;;;;;;;18.83;13.90;;;2.80;94.20;;;;;;5105624;28;20416;-74
2020/12/10 11:01:34;;;;;;;17.38;13.82;;;2.80;94.20;;;;;;5092642;28;20895;-74
2020/12/10 11:04:01;;;;;;;17.98;13.93;;;2.80;94.40;;;;;;5088146;28;20423;-74
2020/12/10 11:06:27;;;;;;;16.73;13.30;;;2.80;94.30;;;;;;5092683;28;20412;-74
2020/12/10 11:08:58;;;;;;;17.20;13.35;;;2.80;93.80;;;;;;5110426;28;20411;-74
2020/12/10 11:11:24;;;;;;;17.23;13.55;;;2.80;94.00;;;;;;5089507;28;20408;-74
2020/12/10 11:13:51;;;;;;;16.40;13.50;;;2.80;94.00;;;;;;5092877;28;20694;-74
2020/12/10 11:16:18;;;;;;;19.73;14.35;;;2.90;94.10;;;;;;5074758;28;20892;-74
2020/12/10 11:18:45;;;;;;;19.98;13.90;;;3.00;94.10;;;;;;5108625;28;20408;-75
2020/12/10 11:21:12;;;;;;;18.60;13.07;;;3.00;94.10;;;;;;5089228;28;20469;-75
2020/12/10 11:23:39;;;;;;;16.50;12.95;;;3.10;93.80;;;;;;5107426;28;20416;-75
2020/12/10 11:26:06;;;;;;;17.33;13.30;;;3.10;93.60;;;;;;5077361;28;20420;-75
2020/12/10 11:28:32;;;;;;;17.77;13.68;;;3.20;93.60;;;;;;5110641;28;20986;-74
2020/12/10 11:30:59;;;;;;;18.95;14.18;;;3.10;93.70;;;;;;5106375;28;20405;-74
2020/12/10 11:33:26;;;;;;;17.77;13.98;;;3.20;93.60;;;;;;5076047;28;20959;-74
2020/12/10 11:35:52;;;;;;;17.73;14.00;;;3.20;93.40;;;;;;5105846;28;20743;-74
2020/12/10 11:38:19;;;;;;;17.58;14.48;;;3.10;93.40;;;;;;5089885;28;20410;-74
2020/12/10 11:40:46;;;;;;;16.95;13.77;;;3.20;93.20;;;;;;5078174;28;20412;-75
2020/12/10 11:43:13;;;;;;;16.47;13.50;;;3.10;93.30;;;;;;5088742;28;20400;-75
2020/12/10 11:45:39;;;;;;;19.33;14.35;;;3.10;93.40;;;;;;5092532;28;20412;-75
2020/12/10 11:48:06;;;;;;;15.75;13.30;;;3.20;93.80;;;;;;5089047;28;20465;-75
2020/12/10 11:50:34;;;;;;;17.23;13.85;;;3.10;93.60;;;;;;5109708;28;20449;-75
2020/12/10 11:53:02;;;;;;;16.10;13.40;;;3.20;93.60;;;;;;5089862;28;20505;-75
2020/12/10 11:55:28;;;;;;;15.80;13.32;;;3.20;93.50;;;;;;5093218;28;20817;-74
2020/12/10 11:57:55;;;;;;;17.40;13.63;;;3.20;93.40;;;;;;5098688;28;20406;-74
2020/12/10 12:00:22;;;;;;;17.83;14.38;;;3.20;93.30;;;;;;5091264;28;20834;-75
2020/12/10 12:02:51;;;;;;;19.85;15.93;;;3.20;93.50;;;;;;5093622;28;20499;-75
2020/12/10 12:05:18;;;;;;;18.30;14.27;;;3.20;93.20;;;;;;5095932;28;21117;-74
2020/12/10 12:07:47;;;;;;;16.77;13.97;;;3.20;93.40;;;;;;5110227;28;20480;-75
2020/12/10 12:10:15;;;;;;;20.25;13.65;;;3.20;93.40;;;;;;5096155;28;20495;-74
2020/12/10 12:12:42;;;;;;;25.55;14.75;;;3.20;93.30;;;;;;5113254;28;20463;-74
2020/12/10 12:15:09;;;;;;;17.35;13.55;;;3.20;93.60;;;;;;5090447;28;20402;-74
2020/12/10 12:17:35;;;;;;;17.17;13.93;;;3.20;93.00;;;;;;5076015;28;20402;-75
2020/12/10 12:20:04;;;;;;;17.20;13.27;;;3.20;93.00;;;;;;5092080;28;20441;-74
2020/12/10 12:22:31;;;;;;;17.88;13.80;;;3.20;92.90;;;;;;5086436;28;20553;-74
2020/12/10 12:24:57;;;;;;;17.17;13.98;;;3.20;93.00;;;;;;5106249;28;20469;-75
2020/12/10 12:27:23;;;;;;;18.23;14.70;;;3.20;93.00;;;;;;5113272;28;21118;-74
2020/12/10 12:29:50;;;;;;;18.60;14.83;;;3.20;93.00;;;;;;5083417;28;21060;-75
2020/12/10 12:32:17;;;;;;;18.88;14.57;;;3.10;92.90;;;;;;5113700;28;20432;-74
2020/12/10 12:34:43;;;;;;;20.02;16.08;;;3.10;93.10;;;;;;5109769;28;20462;-74
2020/12/10 12:37:10;;;;;;;20.33;16.55;;;3.10;93.40;;;;;;5113248;28;20465;-75
2020/12/10 12:39:36;;;;;;;20.52;16.55;;;3.10;93.50;;;;;;5092263;28;20462;-74
2020/12/10 12:42:05;;;;;;;20.30;16.50;;;3.10;93.50;;;;;;5076863;28;20505;-75
2020/12/10 12:44:32;;;;;;;22.03;16.50;;;3.00;93.30;;;;;;5075409;28;20426;-74
2020/12/10 12:46:58;;;;;;;19.92;16.08;;;3.00;93.20;;;;;;5091829;28;20473;-75